Time;durP1;ratioP1;P1;durP2;ratioP2;P2;SDS_P1;SDS_P2;PMS_P1;PMS_P2;Temp;Humidity;BMP_temperature;BMP_pressure;BME280_temperature;BME280_humidity;BME280_pressure;Samples;Min_cycle;Max_cycle;Signal;HPM_P1;HPM_P2
2023/09/24 00:01:16;;;;;;;10.57;5.40;;;11.70;99.90;;;;;;5009862;28;20420;-66
2023/09/24 00:03:43;;;;;;;6.43;5.90;;;11.70;99.90;;;;;;5012852;28;20390;-66
2023/09/24 00:06:11;;;;;;;4.47;4.10;;;11.60;99.90;;;;;;4997698;28;20434;-66
2023/09/24 00:08:37;;;;;;;4.90;4.03;;;11.60;99.90;;;;;;5014973;28;20419;-66
2023/09/24 00:11:03;;;;;;;4.70;4.30;;;11.60;99.90;;;;;;5015291;28;20401;-66
2023/09/24 00:13:33;;;;;;;6.43;5.17;;;11.60;99.90;;;;;;5016217;28;20537;-67
2023/09/24 00:16:06;;;;;;;4.20;3.90;;;11.50;99.90;;;;;;5016262;28;20798;-66
2023/09/24 00:18:32;;;;;;;5.23;4.07;;;11.50;99.90;;;;;;5015311;28;20465;-67
2023/09/24 00:20:58;;;;;;;6.47;3.87;;;11.50;99.90;;;;;;5015059;28;20468;-66
2023/09/24 00:23:24;;;;;;;4.20;3.90;;;11.60;99.90;;;;;;5014574;28;20415;-67
2023/09/24 00:25:50;;;;;;;5.53;4.60;;;11.50;99.90;;;;;;4998318;28;20408;-66
2023/09/24 00:28:18;;;;;;;7.73;5.80;;;11.50;99.90;;;;;;5016048;28;20176;-65
2023/09/24 00:30:44;;;;;;;4.00;3.70;;;11.50;99.90;;;;;;4997268;28;20196;-65
2023/09/24 00:33:09;;;;;;;4.97;4.57;;;11.50;99.90;;;;;;4998275;28;20481;-66
2023/09/24 00:35:35;;;;;;;5.70;4.33;;;11.40;99.90;;;;;;5015446;28;20184;-66
2023/09/24 00:38:01;;;;;;;5.07;4.67;;;11.50;99.90;;;;;;5015413;28;20192;-66
2023/09/24 00:40:27;;;;;;;7.77;4.63;;;11.40;99.90;;;;;;5014691;28;20203;-65
2023/09/24 00:42:53;;;;;;;4.63;4.23;;;11.40;99.90;;;;;;5015785;28;20407;-67
2023/09/24 00:45:25;;;;;;;8.10;5.30;;;11.30;99.90;;;;;;4998025;28;20732;-66
2023/09/24 00:47:53;;;;;;;4.50;4.20;;;11.30;99.90;;;;;;5015447;28;20874;-67
2023/09/24 00:50:21;;;;;;;4.20;3.90;;;11.20;99.90;;;;;;5014421;28;20405;-67
2023/09/24 00:59:03;;;;;;;4.50;4.10;;;11.20;99.90;;;;;;4977761;28;20430;-66
2023/09/24 01:01:34;;;;;;;4.37;4.00;;;11.10;99.90;;;;;;5014232;28;20423;-67
2023/09/24 01:04:01;;;;;;;5.97;3.97;;;11.20;99.90;;;;;;5015070;28;20434;-67
2023/09/24 01:06:30;;;;;;;4.33;4.03;;;11.10;99.90;;;;;;5015074;28;20386;-66
2023/09/24 01:08:56;;;;;;;4.00;3.20;;;11.10;99.90;;;;;;4997469;28;20424;-66
2023/09/24 01:11:24;;;;;;;5.70;4.00;;;11.10;99.90;;;;;;5014337;28;20410;-67
2023/09/24 01:13:50;;;;;;;4.53;4.13;;;11.10;99.90;;;;;;5013446;28;20470;-70
2023/09/24 01:16:17;;;;;;;8.53;3.77;;;11.20;99.90;;;;;;4996848;28;20420;-66
2023/09/24 01:18:45;;;;;;;4.30;3.83;;;11.20;99.90;;;;;;5014838;28;20214;-66
2023/09/24 01:21:15;;;;;;;4.57;3.87;;;11.20;99.90;;;;;;5013977;28;20427;-66
2023/09/24 01:23:45;;;;;;;3.77;3.47;;;11.20;99.90;;;;;;5014729;28;20390;-66
2023/09/24 01:29:39;;;;;;;3.37;3.07;;;11.20;99.90;;;;;;5013833;28;20394;-67
2023/09/24 01:32:06;;;;;;;5.43;3.90;;;11.20;99.90;;;;;;4996148;28;20431;-65
2023/09/24 01:34:34;;;;;;;4.97;4.23;;;11.20;99.90;;;;;;4997012;28;20489;-65
2023/09/24 01:37:08;;;;;;;5.53;4.50;;;11.30;99.90;;;;;;4997027;28;20386;-66
2023/09/24 01:39:36;;;;;;;4.40;4.00;;;11.30;99.90;;;;;;5013645;28;20459;-79
2023/09/24 01:42:02;;;;;;;5.93;3.67;;;11.30;99.90;;;;;;4996709;28;20929;-67
2023/09/24 01:44:32;;;;;;;4.17;3.83;;;11.40;99.90;;;;;;5014416;28;20484;-67
2023/09/24 01:46:58;;;;;;;3.40;3.17;;;11.40;99.90;;;;;;5013248;28;20953;-65
2023/09/24 01:49:24;;;;;;;3.87;3.57;;;11.40;99.90;;;;;;5012279;28;20900;-67
2023/09/24 01:51:50;;;;;;;5.23;3.67;;;11.40;99.90;;;;;;4996080;28;20444;-66
2023/09/24 01:54:15;;;;;;;10.70;4.60;;;11.40;99.90;;;;;;5014208;28;20176;-66
2023/09/24 01:56:41;;;;;;;3.90;3.50;;;11.30;99.90;;;;;;4996525;28;20768;-66
2023/09/24 01:59:07;;;;;;;3.87;3.40;;;11.30;99.90;;;;;;5014075;28;20240;-66
2023/09/24 02:01:33;;;;;;;4.20;3.67;;;11.30;99.90;;;;;;4979386;28;20492;-67
2023/09/24 02:04:01;;;;;;;8.50;3.93;;;11.40;99.90;;;;;;5013677;28;20554;-67
2023/09/24 02:06:27;;;;;;;7.00;4.07;;;11.40;99.90;;;;;;4996468;28;20787;-67
2023/09/24 02:08:53;;;;;;;5.30;3.57;;;11.40;99.90;;;;;;5013359;28;20374;-67
2023/09/24 02:11:20;;;;;;;5.43;3.40;;;11.50;99.90;;;;;;5013097;28;20193;-67
2023/09/24 02:13:46;;;;;;;3.53;2.77;;;11.50;99.90;;;;;;5014017;28;20172;-66
2023/09/24 02:16:12;;;;;;;4.50;3.00;;;11.60;99.90;;;;;;5014060;28;20753;-67
2023/09/24 02:18:38;;;;;;;7.73;3.07;;;11.50;99.90;;;;;;5014065;28;20811;-66
2023/09/24 02:21:14;;;;;;;3.87;3.50;;;11.50;99.90;;;;;;5012878;28;20454;-67
2023/09/24 02:23:41;;;;;;;3.67;3.37;;;11.50;99.90;;;;;;5013624;28;20407;-68
2023/09/24 02:26:08;;;;;;;4.47;3.30;;;11.50;99.90;;;;;;5013353;28;20403;-67
2023/09/24 02:28:38;;;;;;;5.80;3.80;;;11.50;99.90;;;;;;5013337;28;20405;-67
2023/09/24 02:31:10;;;;;;;4.33;4.00;;;11.60;99.90;;;;;;5012849;28;20427;-67
2023/09/24 02:33:36;;;;;;;3.80;3.40;;;11.60;99.90;;;;;;4996162;28;20394;-66
2023/09/24 02:36:02;;;;;;;4.80;4.10;;;11.60;99.90;;;;;;4996356;28;20412;-66
2023/09/24 02:38:28;;;;;;;7.50;3.20;;;11.60;99.90;;;;;;4995846;28;20393;-66
2023/09/24 02:40:57;;;;;;;6.40;3.43;;;11.60;99.90;;;;;;5011238;28;20477;-67
2023/09/24 02:43:23;;;;;;;11.93;3.70;;;11.60;99.90;;;;;;5013524;28;20641;-67
2023/09/24 02:45:49;;;;;;;5.90;3.87;;;11.60;99.90;;;;;;5013550;28;20855;-66
2023/09/24 02:48:18;;;;;;;3.93;3.50;;;11.50;99.90;;;;;;5013561;28;20414;-68
2023/09/24 02:50:44;;;;;;;3.90;3.40;;;11.50;99.90;;;;;;5011288;28;20287;-66
2023/09/24 02:53:10;;;;;;;4.23;3.83;;;11.50;99.90;;;;;;5013378;28;20833;-66
2023/09/24 02:55:36;;;;;;;3.83;3.53;;;11.50;99.90;;;;;;5013484;28;20946;-67
2023/09/24 02:58:05;;;;;;;4.40;3.07;;;11.50;99.90;;;;;;4995843;28;20397;-67
2023/09/24 03:00:36;;;;;;;6.80;3.57;;;11.40;99.90;;;;;;5011764;28;20793;-67
2023/09/24 03:03:05;;;;;;;5.60;3.63;;;11.40;99.90;;;;;;5013432;28;20411;-67
2023/09/24 03:05:31;;;;;;;7.13;4.93;;;11.30;99.90;;;;;;5013391;28;20835;-66
2023/09/24 03:08:00;;;;;;;6.73;3.30;;;11.30;99.90;;;;;;4995590;28;20390;-67
2023/09/24 03:10:26;;;;;;;6.60;4.40;;;11.40;99.90;;;;;;5012531;28;20829;-68
2023/09/24 03:12:52;;;;;;;5.40;3.47;;;11.40;99.90;;;;;;4995709;28;20393;-66
2023/09/24 03:15:20;;;;;;;6.00;3.60;;;11.40;99.90;;;;;;5012179;28;20419;-66
2023/09/24 03:17:47;;;;;;;4.27;3.90;;;11.30;99.90;;;;;;4995703;28;20398;-66
2023/09/24 03:20:16;;;;;;;4.10;3.10;;;11.30;99.90;;;;;;4993922;28;20538;-67
2023/09/24 03:22:43;;;;;;;6.23;4.20;;;11.30;99.90;;;;;;4995431;28;20920;-67
2023/09/24 03:25:10;;;;;;;8.57;4.20;;;11.20;99.90;;;;;;5013132;28;20386;-66
2023/09/24 03:27:38;;;;;;;5.00;4.47;;;11.20;99.90;;;;;;5013121;28;20428;-66
2023/09/24 03:30:13;;;;;;;4.93;4.00;;;11.20;99.90;;;;;;5012342;28;20768;-66
2023/09/24 03:32:42;;;;;;;5.20;4.30;;;11.20;99.90;;;;;;4979932;28;20962;-67
2023/09/24 03:35:09;;;;;;;5.80;4.47;;;11.20;99.90;;;;;;5013017;28;20994;-66
2023/09/24 03:37:40;;;;;;;6.80;5.10;;;11.20;99.90;;;;;;4995266;28;20484;-68
2023/09/24 03:40:12;;;;;;;7.40;4.80;;;11.20;99.90;;;;;;5013304;28;20885;-66
2023/09/24 03:42:42;;;;;;;5.17;4.60;;;11.20;99.90;;;;;;4999103;28;20422;-67
2023/09/24 03:45:13;;;;;;;5.87;4.73;;;11.20;99.90;;;;;;5016544;28;20389;-67
2023/09/24 03:47:39;;;;;;;15.10;5.77;;;11.20;99.90;;;;;;5016656;28;20389;-67
2023/09/24 03:50:16;;;;;;;7.93;5.00;;;11.20;99.90;;;;;;4999140;28;20461;-67
2023/09/24 03:52:50;;;;;;;5.80;5.20;;;11.20;99.90;;;;;;4998864;28;20454;-67
2023/09/24 03:55:17;;;;;;;6.70;5.43;;;11.20;99.90;;;;;;4981949;28;20484;-66
2023/09/24 03:57:43;;;;;;;9.10;5.73;;;11.20;99.90;;;;;;5015290;28;20386;-66
2023/09/24 04:00:18;;;;;;;5.83;4.43;;;11.10;99.90;;;;;;4997426;28;20449;-67
2023/09/24 04:02:48;;;;;;;7.77;4.93;;;11.10;99.90;;;;;;5016405;28;20459;-66
2023/09/24 04:05:21;;;;;;;10.33;5.23;;;11.10;99.90;;;;;;4999187;28;20914;-67
2023/09/24 04:07:52;;;;;;;12.60;5.20;;;11.10;99.90;;;;;;4998733;28;20405;-66
2023/09/24 04:10:21;;;;;;;5.47;4.87;;;11.10;99.90;;;;;;4997176;28;20784;-67
2023/09/24 04:12:51;;;;;;;6.33;5.20;;;11.10;99.90;;;;;;5015696;28;20906;-68
2023/09/24 04:15:19;;;;;;;6.40;4.97;;;11.10;99.90;;;;;;4998782;28;20767;-67
2023/09/24 04:17:47;;;;;;;7.10;6.40;;;11.00;99.90;;;;;;4982332;28;20449;-66
2023/09/24 04:20:17;;;;;;;7.60;5.07;;;11.00;99.90;;;;;;4997763;28;20425;-67
2023/09/24 04:22:49;;;;;;;7.20;5.77;;;10.90;99.90;;;;;;5015828;28;20935;-67
2023/09/24 04:25:21;;;;;;;7.70;5.60;;;11.00;99.90;;;;;;4999400;28;20476;-67
2023/09/24 04:27:48;;;;;;;9.30;5.60;;;10.90;99.90;;;;;;4999054;28;20767;-66
2023/09/24 04:30:16;;;;;;;5.57;4.80;;;10.90;99.90;;;;;;4997743;28;20862;-67
2023/09/24 04:32:53;;;;;;;6.73;5.27;;;10.90;99.90;;;;;;4997599;28;20786;-67
2023/09/24 04:35:22;;;;;;;6.73;4.80;;;10.90;99.90;;;;;;4997964;28;20411;-67
2023/09/24 04:37:49;;;;;;;6.10;5.00;;;10.90;99.90;;;;;;5015925;28;20382;-66
2023/09/24 04:40:15;;;;;;;7.50;4.90;;;10.90;99.90;;;;;;4997315;28;20801;-66
2023/09/24 04:42:45;;;;;;;5.80;4.73;;;10.90;99.90;;;;;;5013699;28;20443;-67
2023/09/24 04:45:15;;;;;;;8.07;5.17;;;10.90;99.90;;;;;;4981495;28;20428;-66
2023/09/24 04:47:42;;;;;;;6.47;5.20;;;10.90;99.90;;;;;;5014278;28;20417;-66
2023/09/24 04:50:12;;;;;;;9.73;5.37;;;10.80;99.90;;;;;;4996965;28;20506;-66
2023/09/24 04:52:47;;;;;;;4.80;4.40;;;10.80;99.90;;;;;;5014505;28;20530;-66
2023/09/24 04:55:15;;;;;;;6.63;5.97;;;10.80;99.90;;;;;;5015428;28;20386;-67
2023/09/24 05:05:23;;;;;;;4.37;3.97;;;10.70;99.90;;;;;;4937793;28;20374;-67
2023/09/24 05:07:50;;;;;;;5.37;4.87;;;10.70;99.90;;;;;;4934398;29;20389;-67
2023/09/24 05:10:17;;;;;;;5.80;5.30;;;10.60;99.90;;;;;;4962486;28;20392;-66
2023/09/24 05:12:49;;;;;;;6.40;5.23;;;10.60;99.90;;;;;;5014528;28;20947;-67
2023/09/24 05:22:39;;;;;;;6.10;5.33;;;10.60;99.90;;;;;;5014870;28;20542;-66
2023/09/24 05:25:07;;;;;;;7.03;6.00;;;10.60;99.90;;;;;;5014154;28;21002;-67
2023/09/24 05:27:51;;;;;;;7.27;5.00;;;10.60;99.90;;;;;;5013863;28;20489;-67
2023/09/24 05:30:18;;;;;;;5.20;4.50;;;10.60;99.90;;;;;;4996606;28;20407;-67
2023/09/24 05:33:07;;;;;;;5.50;4.80;;;10.60;99.90;;;;;;4997084;28;20443;-67
2023/09/24 05:35:35;;;;;;;4.87;4.37;;;10.60;99.90;;;;;;5013949;28;20381;-67
2023/09/24 05:38:01;;;;;;;5.47;4.97;;;10.60;99.90;;;;;;5013927;28;20407;-67
2023/09/24 05:40:39;;;;;;;8.20;6.10;;;10.60;99.90;;;;;;5011508;28;20463;-67
2023/09/24 05:43:05;;;;;;;6.73;4.93;;;10.60;99.90;;;;;;5013063;28;20527;-65
2023/09/24 05:45:31;;;;;;;5.40;4.90;;;10.70;99.90;;;;;;5012469;28;20790;-65
2023/09/24 05:48:29;;;;;;;6.70;5.57;;;10.60;99.90;;;;;;5014275;28;20378;-65
2023/09/24 05:50:56;;;;;;;6.03;5.43;;;10.70;99.90;;;;;;5005216;28;20911;-67
2023/09/24 05:53:22;;;;;;;6.53;4.53;;;10.70;99.90;;;;;;5013211;28;20497;-67
2023/09/24 05:55:56;;;;;;;6.40;5.50;;;10.70;99.90;;;;;;4996822;28;20385;-66
2023/09/24 05:58:22;;;;;;;6.60;6.00;;;10.70;99.90;;;;;;5014254;28;20473;-67
2023/09/24 06:00:50;;;;;;;6.57;5.97;;;10.70;99.90;;;;;;4995741;28;20467;-67
2023/09/24 06:03:17;;;;;;;6.45;5.75;;;10.80;99.90;;;;;;5012888;28;20827;-67
2023/09/24 06:05:46;;;;;;;6.87;5.57;;;10.80;99.90;;;;;;4996642;28;20434;-66
2023/09/24 06:08:13;;;;;;;7.30;6.00;;;10.80;99.90;;;;;;4996587;28;20390;-67
2023/09/24 06:10:46;;;;;;;5.93;5.33;;;10.90;99.90;;;;;;5011954;28;20446;-67
2023/09/24 06:13:15;;;;;;;6.03;5.53;;;10.90;99.90;;;;;;5012484;28;20909;-66
2023/09/24 06:15:43;;;;;;;6.10;5.50;;;10.90;99.90;;;;;;5014087;28;20424;-66
2023/09/24 06:18:12;;;;;;;6.40;5.80;;;11.00;99.90;;;;;;5012542;28;20448;-68
2023/09/24 06:20:43;;;;;;;7.47;5.63;;;11.00;99.90;;;;;;5011024;28;20510;-66
2023/09/24 06:23:10;;;;;;;5.77;5.27;;;11.10;99.90;;;;;;5013293;28;20407;-67
2023/09/24 06:25:38;;;;;;;8.93;6.30;;;11.10;99.90;;;;;;5013786;28;20485;-66
2023/09/24 06:28:09;;;;;;;7.67;5.63;;;11.20;99.90;;;;;;5012959;28;20800;-66
2023/09/24 06:30:38;;;;;;;6.67;5.80;;;11.20;99.90;;;;;;5011269;28;20472;-66
2023/09/24 06:33:05;;;;;;;10.13;6.50;;;11.20;99.90;;;;;;5012730;28;20431;-67
2023/09/24 06:35:37;;;;;;;5.97;5.00;;;11.30;99.90;;;;;;4996323;28;20407;-67
2023/09/24 06:38:04;;;;;;;6.90;6.20;;;11.30;99.90;;;;;;4995687;28;20407;-67
2023/09/24 06:40:30;;;;;;;7.90;5.77;;;11.40;99.90;;;;;;5012551;28;20453;-67
2023/09/24 06:42:56;;;;;;;7.70;5.70;;;11.40;99.90;;;;;;5014065;28;20439;-67
2023/09/24 06:45:22;;;;;;;6.13;5.53;;;11.50;99.90;;;;;;5013858;28;20942;-67
2023/09/24 06:47:48;;;;;;;7.10;5.00;;;11.50;99.90;;;;;;4996226;28;20161;-66
2023/09/24 06:50:14;;;;;;;9.20;5.27;;;11.60;99.90;;;;;;5012833;28;20473;-67
2023/09/24 06:52:40;;;;;;;6.37;5.40;;;11.70;99.90;;;;;;5012256;28;20603;-67
2023/09/24 06:55:10;;;;;;;9.40;5.73;;;11.70;1.00;;;;;;5013104;28;20572;-67
2023/09/24 06:57:36;;;;;;;7.37;5.07;;;11.80;1.00;;;;;;4980341;28;20319;-67
2023/09/24 07:00:09;;;;;;;5.67;4.97;;;11.90;1.00;;;;;;4995087;28;20442;-66
2023/09/24 07:02:35;;;;;;;8.27;5.47;;;12.00;1.00;;;;;;5013333;28;20423;-67
2023/09/24 07:05:05;;;;;;;6.00;5.40;;;12.10;1.00;;;;;;5012699;28;20734;-67
2023/09/24 07:07:33;;;;;;;6.10;5.47;;;12.20;1.00;;;;;;5012623;28;20413;-66
2023/09/24 07:10:00;;;;;;;7.30;4.97;;;12.30;1.00;;;;;;5011875;28;20478;-66
2023/09/24 07:12:27;;;;;;;5.80;5.30;;;12.40;1.00;;;;;;5012294;28;20908;-68
2023/09/24 07:14:55;;;;;;;11.23;5.53;;;12.50;1.00;;;;;;5013074;28;20423;-67
2023/09/24 07:17:22;;;;;;;9.10;5.90;;;12.60;1.00;;;;;;5016350;28;20396;-66
2023/09/24 07:19:47;;;;;;;5.80;5.27;;;12.70;1.00;;;;;;5015968;28;20801;-67
2023/09/24 07:22:14;;;;;;;6.23;5.63;;;12.80;1.00;;;;;;5016305;28;20419;-67
2023/09/24 07:24:40;;;;;;;9.23;6.90;;;12.80;1.00;;;;;;4999695;28;20503;-67
2023/09/24 07:27:07;;;;;;;6.50;5.90;;;12.90;1.00;;;;;;4999512;28;20172;-67
2023/09/24 07:29:33;;;;;;;7.43;5.27;;;13.00;1.00;;;;;;5015392;28;20180;-74
2023/09/24 07:32:00;;;;;;;7.80;5.77;;;13.10;1.00;;;;;;4999061;28;20449;-68
2023/09/24 07:34:27;;;;;;;8.37;6.97;;;13.10;1.00;;;;;;4999413;28;20410;-66
2023/09/24 07:36:53;;;;;;;15.03;6.67;;;13.20;1.00;;;;;;5015724;28;20411;-67
2023/09/24 07:39:19;;;;;;;5.70;5.20;;;13.30;1.00;;;;;;5015721;28;20451;-67
2023/09/24 07:41:45;;;;;;;6.27;4.93;;;13.30;1.00;;;;;;4998807;28;20463;-66
2023/09/24 07:44:12;;;;;;;6.90;6.20;;;13.40;1.00;;;;;;5015776;28;20196;-67
2023/09/24 07:46:39;;;;;;;7.63;6.83;;;13.40;1.00;;;;;;4999266;28;20454;-68
2023/09/24 07:49:05;;;;;;;9.07;5.87;;;13.50;1.00;;;;;;5015498;28;20545;-67
2023/09/24 07:51:31;;;;;;;7.93;5.33;;;13.50;1.00;;;;;;5014331;28;20413;-70
2023/09/24 07:54:00;;;;;;;7.67;6.10;;;13.50;1.00;;;;;;4998826;28;20415;-68
2023/09/24 07:56:26;;;;;;;7.97;5.53;;;13.50;1.00;;;;;;5016901;28;20632;-67
2023/09/24 07:58:52;;;;;;;6.50;5.80;;;13.50;1.00;;;;;;4999235;28;20407;-67
2023/09/24 08:01:22;;;;;;;6.13;5.53;;;13.60;1.00;;;;;;5014633;28;20220;-68
2023/09/24 08:03:49;;;;;;;5.40;4.77;;;13.60;1.00;;;;;;5015367;28;20395;-66
2023/09/24 08:06:18;;;;;;;7.00;4.53;;;13.80;1.00;;;;;;4999178;28;20944;-67
2023/09/24 08:08:45;;;;;;;5.40;4.23;;;13.80;1.00;;;;;;5015711;28;20903;-66
2023/09/24 08:11:13;;;;;;;5.30;4.80;;;13.90;1.00;;;;;;5014573;28;20426;-67
2023/09/24 08:13:40;;;;;;;6.57;4.53;;;14.00;99.90;;;;;;5016479;28;20498;-67
2023/09/24 08:16:06;;;;;;;6.73;3.83;;;14.10;99.90;;;;;;5016426;28;20423;-67
2023/09/24 08:25:41;;;;;;;4.47;3.77;;;14.40;99.90;;;;;;4883523;29;20504;-66
2023/09/24 08:28:09;;;;;;;6.63;2.90;;;14.70;99.90;;;;;;4935872;29;20406;-66
2023/09/24 08:30:37;;;;;;;6.10;3.80;;;14.90;99.90;;;;;;4968905;28;20461;-67
2023/09/24 08:33:08;;;;;;;4.00;3.60;;;15.10;99.90;;;;;;5014769;28;20892;-68
2023/09/24 08:35:36;;;;;;;4.23;2.37;;;15.20;99.90;;;;;;5016108;28;20399;-66
2023/09/24 08:38:03;;;;;;;6.00;2.87;;;15.30;99.90;;;;;;4998554;28;20396;-66
2023/09/24 08:40:31;;;;;;;4.93;2.97;;;15.50;99.90;;;;;;4997892;28;20455;-66
2023/09/24 08:42:58;;;;;;;4.23;2.20;;;15.70;99.90;;;;;;5015154;28;20411;-66
2023/09/24 08:45:28;;;;;;;2.63;2.40;;;15.90;99.90;;;;;;5014069;28;20423;-68
2023/09/24 08:47:54;;;;;;;2.17;1.97;;;16.00;99.90;;;;;;5014137;28;20407;-67
2023/09/24 08:50:21;;;;;;;4.13;2.50;;;16.10;99.90;;;;;;4997650;28;20426;-67
2023/09/24 08:52:48;;;;;;;2.87;2.23;;;16.30;99.90;;;;;;5014302;28;20934;-66
2023/09/24 08:55:15;;;;;;;5.17;2.37;;;16.40;99.90;;;;;;5014563;28;20458;-68
2023/09/24 08:57:43;;;;;;;2.23;1.83;;;16.40;99.90;;;;;;4998157;28;20411;-67
2023/09/24 09:00:12;;;;;;;4.60;1.63;;;16.60;99.90;;;;;;5014782;28;20959;-67
2023/09/24 09:02:40;;;;;;;8.63;1.70;;;16.70;99.90;;;;;;4998151;28;20431;-67
2023/09/24 09:05:22;;;;;;;2.33;1.30;;;16.90;99.90;;;;;;5014234;28;20919;-70
2023/09/24 09:08:01;;;;;;;3.73;1.70;;;17.10;99.90;;;;;;5014804;28;20403;-67
2023/09/24 09:10:43;;;;;;;2.23;1.50;;;17.20;99.90;;;;;;5014549;28;20998;-68
2023/09/24 09:13:15;;;;;;;5.00;2.13;;;17.50;94.80;;;;;;5015328;28;20415;-67
2023/09/24 09:15:43;;;;;;;1.73;1.57;;;17.70;79.00;;;;;;5015262;28;20407;-68
2023/09/24 09:18:25;;;;;;;5.43;1.70;;;17.90;22.70;;;;;;4997791;28;20973;-67
2023/09/24 09:20:59;;;;;;;3.60;1.80;;;18.30;1.00;;;;;;5013324;28;20459;-67
2023/09/24 09:23:45;;;;;;;3.83;1.50;;;18.60;1.00;;;;;;4998400;28;20810;-68
2023/09/24 09:26:11;;;;;;;2.07;1.30;;;18.80;1.00;;;;;;4997866;28;20411;-68
2023/09/24 09:28:38;;;;;;;3.17;1.27;;;19.00;1.00;;;;;;5014904;28;20407;-67
2023/09/24 09:31:11;;;;;;;1.47;1.37;;;19.10;1.00;;;;;;5014150;28;20422;-67
2023/09/24 09:33:44;;;;;;;1.93;1.20;;;19.10;1.00;;;;;;5013449;28;20418;-68
2023/09/24 09:36:27;;;;;;;3.37;1.00;;;19.20;1.00;;;;;;5014964;28;20465;-67
2023/09/24 09:39:00;;;;;;;1.97;1.73;;;19.40;1.00;;;;;;5014010;28;20509;-67
2023/09/24 09:41:33;;;;;;;1.60;0.90;;;19.50;1.00;;;;;;4997586;28;20451;-68
2023/09/24 09:44:06;;;;;;;2.87;1.17;;;19.70;1.00;;;;;;4997060;28;20498;-67
2023/09/24 09:46:39;;;;;;;1.60;1.00;;;19.80;1.00;;;;;;5012760;28;20450;-67
2023/09/24 09:49:07;;;;;;;2.43;1.10;;;20.10;1.00;;;;;;5014578;28;20481;-67
2023/09/24 09:51:48;;;;;;;1.53;1.07;;;20.30;1.00;;;;;;4996539;28;20428;-67
2023/09/24 09:54:17;;;;;;;2.97;1.27;;;20.50;1.00;;;;;;5012568;28;20534;-67
2023/09/24 09:56:44;;;;;;;3.73;1.30;;;20.70;1.00;;;;;;5014618;28;20415;-67
2023/09/24 09:59:10;;;;;;;2.90;1.17;;;20.80;1.00;;;;;;4997046;28;20417;-67
2023/09/24 10:01:36;;;;;;;2.70;1.07;;;21.00;1.00;;;;;;5013677;28;20795;-67
2023/09/24 10:04:06;;;;;;;1.77;0.90;;;21.10;1.00;;;;;;5011455;28;20234;-67
2023/09/24 10:06:37;;;;;;;3.03;1.40;;;21.20;1.00;;;;;;4979244;28;20442;-67
2023/09/24 10:09:34;;;;;;;3.70;1.10;;;21.30;1.00;;;;;;4995142;28;20481;-67
2023/09/24 10:12:06;;;;;;;4.80;1.30;;;21.30;1.00;;;;;;5013465;28;20423;-67
2023/09/24 10:14:38;;;;;;;3.23;1.43;;;21.10;1.00;;;;;;4996622;28;20439;-67
2023/09/24 10:17:23;;;;;;;5.47;1.20;;;21.40;1.00;;;;;;5012768;28;20469;-68
2023/09/24 10:20:07;;;;;;;2.63;1.10;;;21.80;1.00;;;;;;4993557;28;20617;-71
2023/09/24 10:22:44;;;;;;;4.67;1.97;;;21.80;1.00;;;;;;5010617;28;20435;-67
2023/09/24 10:25:36;;;;;;;10.17;3.27;;;21.20;1.00;;;;;;5014032;28;20504;-67
2023/09/24 10:28:11;;;;;;;3.93;1.33;;;21.00;1.00;;;;;;5013088;28;20938;-67
2023/09/24 10:31:03;;;;;;;1.60;0.93;;;20.60;1.00;;;;;;5012154;28;20426;-67
2023/09/24 10:34:05;;;;;;;3.20;1.10;;;20.10;1.00;;;;;;4996581;28;20419;-67
2023/09/24 10:36:33;;;;;;;2.50;1.17;;;20.20;1.00;;;;;;5013828;28;20437;-67
2023/09/24 10:39:11;;;;;;;5.33;0.90;;;20.40;1.00;;;;;;4980177;28;20431;-67
2023/09/24 10:42:09;;;;;;;1.47;1.03;;;20.60;1.00;;;;;;5012303;28;20859;-67
2023/09/24 10:44:39;;;;;;;2.07;1.40;;;21.00;1.00;;;;;;5013275;28;20514;-68
2023/09/24 10:47:29;;;;;;;1.90;1.30;;;21.30;1.00;;;;;;4980487;28;20927;-67
2023/09/24 10:50:09;;;;;;;1.30;1.00;;;21.60;1.00;;;;;;5012325;28;20472;-67
2023/09/24 10:53:01;;;;;;;2.60;0.90;;;21.30;99.90;;;;;;5013437;28;21074;-67
2023/09/24 10:55:45;;;;;;;2.60;0.90;;;20.90;99.90;;;;;;5012099;28;20418;-67
2023/09/24 10:58:15;;;;;;;7.23;1.40;;;20.60;99.90;;;;;;4995407;28;20427;-67
2023/09/24 11:00:45;;;;;;;2.40;0.90;;;20.20;99.90;;;;;;4978827;28;20511;-67
2023/09/24 11:03:14;;;;;;;3.03;1.27;;;20.00;99.90;;;;;;4995638;28;20407;-67
2023/09/24 11:05:45;;;;;;;2.40;1.37;;;19.80;99.90;;;;;;5013762;28;20410;-67
2023/09/24 11:08:15;;;;;;;1.73;1.00;;;19.80;99.90;;;;;;4996330;28;20469;-68
2023/09/24 11:10:48;;;;;;;2.60;1.20;;;19.80;99.90;;;;;;5012543;28;20829;-67
2023/09/24 11:13:15;;;;;;;4.23;0.93;;;19.70;99.90;;;;;;5013581;28;20407;-67
2023/09/24 11:15:42;;;;;;;5.70;1.10;;;19.70;99.90;;;;;;4979956;28;20506;-67
2023/09/24 11:18:11;;;;;;;3.57;1.20;;;19.80;99.90;;;;;;5012841;28;20411;-68
2023/09/24 11:20:38;;;;;;;1.70;1.30;;;20.00;99.90;;;;;;4979322;28;20466;-67
2023/09/24 11:23:11;;;;;;;3.10;1.60;;;20.20;99.90;;;;;;4995858;28;20420;-67
2023/09/24 11:25:38;;;;;;;5.70;1.50;;;20.30;99.90;;;;;;5012971;28;20426;-67
2023/09/24 11:28:06;;;;;;;2.10;1.53;;;20.30;99.90;;;;;;4963813;28;20419;-67
2023/09/24 11:30:50;;;;;;;4.50;1.33;;;20.10;99.90;;;;;;4979081;28;20414;-67
2023/09/24 11:33:21;;;;;;;6.23;1.00;;;19.90;99.90;;;;;;4995831;28;20514;-67
2023/09/24 11:35:54;;;;;;;4.57;1.30;;;19.60;99.90;;;;;;4995007;28;20422;-67
2023/09/24 11:38:35;;;;;;;3.63;1.10;;;19.60;99.90;;;;;;5013213;28;20784;-67
2023/09/24 11:41:12;;;;;;;3.20;0.90;;;19.40;99.90;;;;;;5012117;28;20513;-67
2023/09/24 11:43:37;;;;;;;3.83;1.47;;;19.40;99.90;;;;;;5013219;28;20414;-67
2023/09/24 11:46:24;;;;;;;2.63;0.93;;;19.60;99.90;;;;;;5013223;28;20407;-67
2023/09/24 11:48:52;;;;;;;2.50;1.27;;;19.90;99.90;;;;;;4996471;28;20422;-67
2023/09/24 11:51:20;;;;;;;2.50;1.07;;;20.10;99.90;;;;;;4962530;28;20453;-70
2023/09/24 11:53:46;;;;;;;1.93;0.90;;;20.20;99.90;;;;;;5012415;28;20462;-67
2023/09/24 11:56:13;;;;;;;4.87;1.23;;;20.30;99.90;;;;;;4963451;28;20427;-67
2023/09/24 11:58:39;;;;;;;4.57;1.90;;;20.20;99.90;;;;;;5012646;28;20191;-68
2023/09/24 12:01:09;;;;;;;2.53;1.00;;;20.30;99.90;;;;;;4996472;28;21011;-68
2023/09/24 12:03:35;;;;;;;2.30;0.87;;;20.10;99.90;;;;;;4984147;28;20776;-67
2023/09/24 12:06:03;;;;;;;1.90;0.83;;;20.00;99.90;;;;;;4983116;28;20415;-67
2023/09/24 12:08:29;;;;;;;3.73;0.90;;;20.00;99.90;;;;;;4983054;28;20502;-68
2023/09/24 12:10:55;;;;;;;4.13;1.23;;;20.10;99.90;;;;;;4997410;28;20449;-67
2023/09/24 12:13:22;;;;;;;5.37;2.23;;;20.30;99.90;;;;;;4998843;28;20419;-67
2023/09/24 12:15:49;;;;;;;5.37;1.03;;;20.50;99.90;;;;;;5016038;28;20289;-67
2023/09/24 12:18:16;;;;;;;2.60;0.97;;;20.50;99.90;;;;;;4998821;28;20443;-67
2023/09/24 12:20:43;;;;;;;4.70;1.37;;;20.70;99.90;;;;;;4981467;28;20525;-67
2023/09/24 12:23:10;;;;;;;3.67;1.20;;;20.80;99.90;;;;;;5016300;28;20399;-67
2023/09/24 12:25:37;;;;;;;1.60;1.10;;;20.90;99.90;;;;;;5016369;28;20410;-65
2023/09/24 12:28:11;;;;;;;2.60;1.20;;;20.60;99.90;;;;;;4998075;28;20411;-66
2023/09/24 12:30:38;;;;;;;1.13;1.03;;;20.30;99.90;;;;;;5015025;28;20406;-65
2023/09/24 12:33:04;;;;;;;7.07;1.27;;;20.00;99.90;;;;;;5016142;28;20907;-67
2023/09/24 12:35:30;;;;;;;2.53;1.10;;;20.20;99.90;;;;;;5015996;28;20772;-67
2023/09/24 12:37:56;;;;;;;2.80;0.90;;;21.60;99.90;;;;;;4998467;28;20434;-65
2023/09/24 12:40:23;;;;;;;3.13;0.70;;;23.00;99.90;;;;;;5014966;28;20451;-66
2023/09/24 12:42:49;;;;;;;3.77;1.83;;;24.30;99.90;;;;;;5015878;28;20896;-65
2023/09/24 12:45:16;;;;;;;2.70;0.83;;;25.40;99.90;;;;;;5015817;28;20399;-66
2023/09/24 12:47:41;;;;;;;2.03;0.80;;;26.20;99.90;;;;;;5015112;28;20430;-68
2023/09/24 12:50:09;;;;;;;2.97;0.97;;;26.80;99.90;;;;;;4997252;28;20907;-68
2023/09/24 12:52:46;;;;;;;2.80;1.00;;;26.60;99.90;;;;;;4997953;28;20208;-67
2023/09/24 12:55:17;;;;;;;2.37;1.00;;;26.70;99.90;;;;;;4964411;28;20916;-68
2023/09/24 12:57:45;;;;;;;1.93;0.63;;;27.40;99.90;;;;;;4963476;28;20455;-68
2023/09/24 13:00:12;;;;;;;1.90;0.70;;;27.70;99.90;;;;;;4977624;28;20456;-67
2023/09/24 13:02:50;;;;;;;1.83;0.80;;;27.40;99.90;;;;;;4995934;28;20424;-67
2023/09/24 13:05:20;;;;;;;3.17;1.10;;;25.90;99.90;;;;;;4962220;28;20431;-69
2023/09/24 13:07:47;;;;;;;1.30;0.70;;;25.30;99.90;;;;;;4978576;28;20865;-68
2023/09/24 13:10:14;;;;;;;2.33;1.03;;;25.10;99.90;;;;;;4995584;28;20506;-67
2023/09/24 13:12:42;;;;;;;2.23;0.87;;;25.60;99.90;;;;;;4962126;28;20432;-68
2023/09/24 13:15:09;;;;;;;2.03;1.00;;;26.60;99.90;;;;;;4978164;28;20424;-67
2023/09/24 13:17:36;;;;;;;1.50;1.00;;;26.60;99.90;;;;;;4995782;28;20416;-67
2023/09/24 13:20:04;;;;;;;2.30;1.10;;;25.60;99.90;;;;;;4961594;28;20456;-68
2023/09/24 13:22:30;;;;;;;5.27;1.30;;;24.40;99.90;;;;;;4945980;28;20440;-68
2023/09/24 13:24:56;;;;;;;2.97;0.83;;;23.70;99.90;;;;;;4975899;28;20792;-67
2023/09/24 13:27:22;;;;;;;1.57;0.80;;;24.50;99.90;;;;;;4962082;28;20195;-68
2023/09/24 13:29:50;;;;;;;1.73;0.80;;;25.80;99.90;;;;;;4961334;28;20408;-68
2023/09/24 13:32:19;;;;;;;2.57;1.00;;;25.90;99.90;;;;;;4978314;28;20468;-69